createdAt,value
2018-03-18T00:00:00.395Z,1003.87
2018-03-18T00:01:00.406Z,1003.86
2018-03-18T00:02:00.419Z,1003.89
2018-03-18T00:03:00.433Z,1003.87
2018-03-18T00:04:00.444Z,1003.81
2018-03-18T00:05:00.455Z,1003.91
2018-03-18T00:06:00.469Z,1003.91
2018-03-18T00:07:00.480Z,1003.95
2018-03-18T00:08:00.491Z,1003.81
2018-03-18T00:09:00.503Z,1003.90
2018-03-18T00:10:00.516Z,1003.98
2018-03-18T00:11:00.529Z,1003.93
2018-03-18T00:12:00.540Z,1003.88
2018-03-18T00:13:00.552Z,1003.90
2018-03-18T00:14:00.570Z,1003.95
2018-03-18T00:15:00.576Z,1003.90
2018-03-18T00:16:00.589Z,1003.95
2018-03-18T00:17:00.599Z,1003.92
2018-03-18T00:18:00.611Z,1003.92
2018-03-18T00:19:00.625Z,1003.92
2018-03-18T00:20:00.645Z,1003.85
2018-03-18T00:21:00.648Z,1003.87
2018-03-18T00:22:00.660Z,1003.87
2018-03-18T00:23:00.673Z,1003.86
2018-03-18T00:24:00.686Z,1003.95
2018-03-18T00:25:00.696Z,1003.94
2018-03-18T00:26:00.710Z,1003.98
2018-03-18T00:27:00.721Z,1003.94
2018-03-18T00:28:00.734Z,1004.00
2018-03-18T00:29:00.745Z,1004.05
2018-03-18T00:30:00.758Z,1003.99
2018-03-18T00:31:00.771Z,1004.01
2018-03-18T00:32:00.782Z,1003.95
2018-03-18T00:33:00.794Z,1004.01
2018-03-18T00:34:00.806Z,1004.00
2018-03-18T00:35:00.819Z,1003.98
2018-03-18T00:36:00.831Z,1004.04
2018-03-18T00:37:00.844Z,1004.15
2018-03-18T00:38:00.855Z,1003.89
2018-03-18T00:39:00.867Z,1004.03
2018-03-18T00:40:00.887Z,1004.01
2018-03-18T00:41:00.891Z,1004.05
2018-03-18T00:42:00.902Z,1004.05
2018-03-18T00:43:00.915Z,1004.06
2018-03-18T00:44:00.927Z,1004.00
2018-03-18T00:45:00.939Z,1004.05
2018-03-18T00:46:00.951Z,1004.12
2018-03-18T00:47:00.963Z,1004.03
2018-03-18T00:48:00.975Z,1004.04
2018-03-18T00:49:00.986Z,1004.08
2018-03-18T00:50:00.999Z,1004.11
2018-03-18T00:51:01.010Z,1004.14
2018-03-18T00:52:01.036Z,1004.06
2018-03-18T00:53:01.043Z,1004.07
2018-03-18T00:54:01.055Z,1004.11
2018-03-18T00:55:01.060Z,1004.05
2018-03-18T00:56:01.071Z,1004.08
2018-03-18T00:57:01.081Z,1004.09
2018-03-18T00:58:01.095Z,1004.06
2018-03-18T00:59:01.107Z,1004.10
2018-03-18T01:00:01.118Z,1004.09
2018-03-18T01:01:01.130Z,1004.14
2018-03-18T01:02:01.143Z,1004.13
2018-03-18T01:03:01.155Z,1004.09
2018-03-18T01:04:01.166Z,1004.10
2018-03-18T01:05:01.180Z,1004.11
2018-03-18T01:06:01.194Z,1004.12
2018-03-18T01:07:01.202Z,1004.09
2018-03-18T01:08:01.215Z,1004.04
2018-03-18T01:09:01.226Z,1004.11
2018-03-18T01:10:01.240Z,1004.08
2018-03-18T01:11:01.250Z,1004.14
2018-03-18T01:12:01.263Z,1004.11
2018-03-18T01:13:01.275Z,1004.06
2018-03-18T01:14:01.292Z,1004.07
2018-03-18T01:15:01.299Z,1004.05
2018-03-18T01:16:01.311Z,1004.00
2018-03-18T01:17:01.325Z,1004.04
2018-03-18T01:18:01.334Z,1004.00
2018-03-18T01:19:01.346Z,1004.04
2018-03-18T01:20:01.359Z,1004.07
2018-03-18T01:21:01.375Z,1004.03
2018-03-18T01:22:01.381Z,1003.97
2018-03-18T01:23:01.394Z,1004.09
2018-03-18T01:24:01.407Z,1004.13
2018-03-18T01:25:01.417Z,1004.09
2018-03-18T01:26:01.433Z,1004.07
2018-03-18T01:27:01.441Z,1004.10
2018-03-18T01:28:01.454Z,1004.11
2018-03-18T01:29:01.464Z,1004.11
2018-03-18T01:30:01.478Z,1004.02
2018-03-18T01:31:01.489Z,1004.13
2018-03-18T01:32:01.503Z,1004.07
2018-03-18T01:33:01.515Z,1004.08
2018-03-18T01:34:01.526Z,1004.08
2018-03-18T01:35:01.540Z,1004.05
2018-03-18T01:36:01.549Z,1004.23
2018-03-18T01:37:01.560Z,1004.04
2018-03-18T01:38:01.577Z,1004.20
2018-03-18T01:39:01.584Z,1004.09
2018-03-18T01:40:01.600Z,1003.92
2018-03-18T01:41:01.609Z,1003.99
2018-03-18T01:42:01.620Z,1003.85
2018-03-18T01:43:01.633Z,1003.86
2018-03-18T01:44:01.644Z,1003.94
2018-03-18T01:45:01.655Z,1003.95
2018-03-18T01:46:01.667Z,1003.93
2018-03-18T01:47:01.679Z,1003.97
2018-03-18T01:48:01.728Z,1003.97
2018-03-18T01:49:01.712Z,1003.96
2018-03-18T01:50:01.716Z,1004.00
2018-03-18T01:51:01.728Z,1003.94
2018-03-18T01:52:01.738Z,1004.06
2018-03-18T01:53:01.750Z,1003.94
2018-03-18T01:54:01.768Z,1003.93
2018-03-18T01:55:01.776Z,1003.92
2018-03-18T01:56:01.790Z,1003.97
2018-03-18T01:57:01.797Z,1003.99
2018-03-18T01:58:01.809Z,1003.91
2018-03-18T01:59:01.820Z,1003.90
2018-03-18T02:00:01.837Z,1003.93
2018-03-18T02:01:01.859Z,1003.84
2018-03-18T02:02:01.856Z,1003.92
2018-03-18T02:03:01.869Z,1003.87
2018-03-18T02:04:01.880Z,1003.89
2018-03-18T02:05:01.892Z,1003.84
2018-03-18T02:06:01.904Z,1003.87
2018-03-18T02:07:01.917Z,1003.84
2018-03-18T02:08:01.927Z,1003.88
2018-03-18T02:09:01.939Z,1003.88
2018-03-18T02:10:01.951Z,1003.83
2018-03-18T02:11:01.965Z,1003.88
2018-03-18T02:12:01.974Z,1003.89
2018-03-18T02:13:01.987Z,1003.95
2018-03-18T02:14:01.996Z,1003.74
2018-03-18T02:15:02.009Z,1003.89
2018-03-18T02:16:02.022Z,1003.83
2018-03-18T02:17:02.033Z,1003.78
2018-03-18T02:18:02.046Z,1003.84
2018-03-18T02:19:02.063Z,1003.85
2018-03-18T02:20:02.072Z,1003.79
2018-03-18T02:21:02.079Z,1003.94
2018-03-18T02:22:02.091Z,1003.76
2018-03-18T02:23:02.106Z,1003.83
2018-03-18T02:24:02.118Z,1003.89
2018-03-18T02:25:02.129Z,1003.82
2018-03-18T02:26:02.138Z,1003.84
2018-03-18T02:27:02.150Z,1003.80
2018-03-18T02:28:02.162Z,1003.89
2018-03-18T02:29:02.173Z,1003.90
2018-03-18T02:30:02.189Z,1003.96
2018-03-18T02:31:02.197Z,1003.85
2018-03-18T02:32:02.208Z,1003.93
2018-03-18T02:33:02.222Z,1003.86
2018-03-18T02:34:02.232Z,1003.91
2018-03-18T02:35:02.245Z,1003.82
2018-03-18T02:36:02.257Z,1003.86
2018-03-18T02:37:02.267Z,1003.72
2018-03-18T02:38:02.287Z,1003.99
2018-03-18T02:39:02.291Z,1003.80
2018-03-18T02:40:02.302Z,1003.80
2018-03-18T02:41:02.329Z,1003.76
2018-03-18T02:42:02.325Z,1003.72
2018-03-18T02:43:02.337Z,1003.87
2018-03-18T02:44:02.352Z,1003.72
2018-03-18T02:45:02.360Z,1003.81
2018-03-18T02:46:02.374Z,1003.69
2018-03-18T02:47:02.384Z,1003.71
2018-03-18T02:48:02.396Z,1003.78
2018-03-18T02:49:02.408Z,1003.86
2018-03-18T02:50:02.421Z,1003.65
2018-03-18T02:51:02.431Z,1003.73
2018-03-18T02:52:02.441Z,1003.79
2018-03-18T02:53:02.453Z,1003.71
2018-03-18T02:54:02.465Z,1003.78
2018-03-18T02:55:02.477Z,1003.72
2018-03-18T02:56:02.488Z,1003.70
2018-03-18T02:57:02.501Z,1003.71
2018-03-18T02:58:02.512Z,1003.73
2018-03-18T02:59:02.523Z,1003.70
2018-03-18T03:00:02.537Z,1003.71
2018-03-18T03:01:02.545Z,1003.71
2018-03-18T03:02:02.557Z,1003.76
2018-03-18T03:03:02.569Z,1003.69
2018-03-18T03:04:02.582Z,1003.68
2018-03-18T03:05:02.594Z,1003.89
2018-03-18T03:06:02.604Z,1003.62
2018-03-18T03:07:02.616Z,1003.65
2018-03-18T03:08:02.627Z,1003.68
2018-03-18T03:09:02.638Z,1003.60
2018-03-18T03:10:02.648Z,1003.74
2018-03-18T03:11:02.662Z,1003.73
2018-03-18T03:12:02.673Z,1003.75
2018-03-18T03:13:02.684Z,1003.67
2018-03-18T03:14:02.698Z,1003.63
2018-03-18T03:15:02.716Z,1003.60
2018-03-18T03:16:02.719Z,1003.78
2018-03-18T03:17:02.768Z,1003.72
2018-03-18T03:18:02.742Z,1003.63
2018-03-18T03:19:02.753Z,1003.68
2018-03-18T03:20:02.765Z,1003.80
2018-03-18T03:21:02.777Z,1003.67
2018-03-18T03:22:02.788Z,1003.80
2018-03-18T03:23:02.801Z,1003.83
2018-03-18T03:24:02.811Z,1003.71
2018-03-18T03:25:02.829Z,1003.70
2018-03-18T03:26:02.834Z,1003.74
2018-03-18T03:27:02.845Z,1003.76
2018-03-18T03:28:02.856Z,1003.76
2018-03-18T03:29:02.868Z,1003.74
2018-03-18T03:30:02.898Z,1003.64
2018-03-18T03:31:02.893Z,1003.90
2018-03-18T03:32:02.905Z,1003.70
2018-03-18T03:33:02.916Z,1003.72
2018-03-18T03:34:02.926Z,1003.85
2018-03-18T03:35:02.937Z,1003.77
2018-03-18T03:36:02.949Z,1003.78
2018-03-18T03:37:02.960Z,1003.68
2018-03-18T03:38:02.975Z,1003.64
2018-03-18T03:39:02.983Z,1003.73
2018-03-18T03:40:03.052Z,1003.77
2018-03-18T03:41:03.006Z,1003.82
2018-03-18T03:42:03.017Z,1003.75
2018-03-18T03:43:03.029Z,1003.88
2018-03-18T03:44:03.042Z,1003.83
2018-03-18T03:45:03.059Z,1003.81
2018-03-18T03:46:03.062Z,1003.85
2018-03-18T03:47:03.074Z,1003.92
2018-03-18T03:48:03.087Z,1003.79
2018-03-18T03:49:03.102Z,1003.93
2018-03-18T03:50:03.109Z,1004.09
2018-03-18T03:51:03.120Z,1003.75
2018-03-18T03:52:03.133Z,1003.90
2018-03-18T03:53:03.148Z,1003.89
2018-03-18T03:54:03.153Z,1003.92
2018-03-18T03:55:03.167Z,1003.82
2018-03-18T03:56:03.178Z,1003.88
2018-03-18T03:57:03.189Z,1003.86
2018-03-18T03:58:03.200Z,1003.93
2018-03-18T03:59:03.212Z,1003.95
2018-03-18T04:00:03.222Z,1004.06
2018-03-18T04:01:03.234Z,1004.03
2018-03-18T04:02:03.245Z,1003.92
2018-03-18T04:03:03.257Z,1003.93
2018-03-18T04:04:03.268Z,1003.93
2018-03-18T04:05:03.279Z,1003.98
2018-03-18T04:06:03.291Z,1004.14
2018-03-18T04:07:03.302Z,1003.97
2018-03-18T04:08:03.315Z,1004.06
2018-03-18T04:09:03.323Z,1003.92
2018-03-18T04:10:03.336Z,1003.83
2018-03-18T04:11:03.348Z,1003.93
2018-03-18T04:12:03.360Z,1003.98
2018-03-18T04:13:03.370Z,1003.96
2018-03-18T04:14:03.383Z,1003.96
2018-03-18T04:15:03.393Z,1003.98
2018-03-18T04:16:03.407Z,1004.11
2018-03-18T04:17:03.415Z,1004.04
2018-03-18T04:18:03.426Z,1003.92
2018-03-18T04:19:03.438Z,1003.97
2018-03-18T04:20:03.450Z,1003.90
2018-03-18T04:21:03.460Z,1003.97
2018-03-18T04:22:03.471Z,1004.00
2018-03-18T04:23:03.484Z,1004.07
2018-03-18T04:24:03.496Z,1004.14
2018-03-18T04:25:03.506Z,1004.08
2018-03-18T04:26:03.517Z,1004.06
2018-03-18T04:27:03.528Z,1004.10
2018-03-18T04:28:03.544Z,1004.13
2018-03-18T04:29:03.551Z,1004.04
2018-03-18T04:30:03.562Z,1004.07
2018-03-18T04:31:03.574Z,1004.08
2018-03-18T04:32:03.585Z,1004.09
2018-03-18T04:33:03.594Z,1004.07
2018-03-18T04:34:03.609Z,1004.06
2018-03-18T04:35:03.620Z,1004.02
2018-03-18T04:36:03.681Z,1004.08
2018-03-18T04:37:03.641Z,1004.12
2018-03-18T04:38:03.660Z,1003.98
2018-03-18T04:39:03.664Z,1004.07
2018-03-18T04:40:03.682Z,1004.15
2018-03-18T04:41:03.688Z,1004.10
2018-03-18T04:42:03.698Z,1004.15
2018-03-18T04:43:03.709Z,1004.08
2018-03-18T04:44:03.721Z,1004.05
2018-03-18T04:45:03.733Z,1004.16
2018-03-18T04:46:03.744Z,1004.17
2018-03-18T04:47:03.754Z,1004.16
2018-03-18T04:48:03.766Z,1004.13
2018-03-18T04:49:03.777Z,1004.18
2018-03-18T04:50:03.788Z,1004.18
2018-03-18T04:51:03.799Z,1004.12
2018-03-18T04:52:03.839Z,1004.09
2018-03-18T04:53:03.820Z,1004.16
2018-03-18T04:54:03.834Z,1004.19
2018-03-18T04:55:03.846Z,1004.14
2018-03-18T04:56:03.860Z,1004.17
2018-03-18T04:57:03.873Z,1004.14
2018-03-18T04:58:03.879Z,1004.16
2018-03-18T04:59:03.895Z,1004.23
2018-03-18T05:00:03.901Z,1004.17
2018-03-18T05:01:03.913Z,1004.19
2018-03-18T05:02:03.923Z,1004.18
2018-03-18T05:03:03.934Z,1004.17
2018-03-18T05:04:03.946Z,1004.21
2018-03-18T05:05:03.956Z,1004.37
2018-03-18T05:06:03.968Z,1004.17
2018-03-18T05:07:03.979Z,1004.24
2018-03-18T05:08:03.990Z,1004.22
2018-03-18T05:09:04.000Z,1004.32
2018-03-18T05:10:04.013Z,1004.27
2018-03-18T05:11:04.024Z,1004.26
2018-03-18T05:12:04.036Z,1004.21
2018-03-18T05:13:04.046Z,1004.22
2018-03-18T05:14:04.060Z,1004.19
2018-03-18T05:15:04.068Z,1004.20
2018-03-18T05:16:04.080Z,1004.28
2018-03-18T05:17:04.095Z,1004.18
2018-03-18T05:18:07.135Z,1004.28
2018-03-18T05:19:04.113Z,1004.22
2018-03-18T05:20:04.125Z,1004.24
2018-03-18T05:21:04.134Z,1004.34
2018-03-18T05:22:04.146Z,1004.26
2018-03-18T05:23:04.157Z,1004.23
2018-03-18T05:24:04.170Z,1004.30
2018-03-18T05:25:04.180Z,1004.25
2018-03-18T05:26:04.191Z,1004.27
2018-03-18T05:27:04.202Z,1004.29
2018-03-18T05:28:04.214Z,1004.27
2018-03-18T05:29:04.225Z,1004.26
2018-03-18T05:30:04.234Z,1004.23
2018-03-18T05:31:04.249Z,1004.27
2018-03-18T05:32:04.258Z,1004.22
2018-03-18T05:33:04.268Z,1004.39
2018-03-18T05:34:04.286Z,1004.34
2018-03-18T05:35:04.291Z,1004.33
2018-03-18T05:36:04.302Z,1004.36
2018-03-18T05:37:04.312Z,1004.38
2018-03-18T05:38:04.323Z,1004.36
2018-03-18T05:39:04.335Z,1004.32
2018-03-18T05:40:04.347Z,1004.42
2018-03-18T05:41:04.357Z,1004.36
2018-03-18T05:42:04.369Z,1004.42
2018-03-18T05:43:04.396Z,1004.40
2018-03-18T05:44:04.392Z,1004.48
2018-03-18T05:45:04.404Z,1004.38
2018-03-18T05:46:04.416Z,1004.39
2018-03-18T05:47:04.426Z,1004.45
2018-03-18T05:48:04.436Z,1004.41
2018-03-18T05:49:04.446Z,1004.44
2018-03-18T05:50:04.457Z,1004.42
2018-03-18T05:51:04.470Z,1004.43
2018-03-18T05:52:04.480Z,1004.51
2018-03-18T05:53:04.497Z,1004.44
2018-03-18T05:54:04.502Z,1004.57
2018-03-18T05:55:04.513Z,1004.40
2018-03-18T05:56:04.526Z,1004.49
2018-03-18T05:57:04.536Z,1004.48
2018-03-18T05:58:04.547Z,1004.46
2018-03-18T05:59:04.558Z,1004.44
2018-03-18T06:00:04.570Z,1004.64
2018-03-18T06:01:04.579Z,1004.49
2018-03-18T06:02:04.592Z,1004.52
2018-03-18T06:03:04.603Z,1004.50
2018-03-18T06:04:04.618Z,1004.48
2018-03-18T06:05:04.625Z,1004.60
2018-03-18T06:06:04.637Z,1004.66
2018-03-18T06:07:04.651Z,1004.60
2018-03-18T06:08:04.659Z,1004.60
2018-03-18T06:09:04.669Z,1004.58
2018-03-18T06:10:04.680Z,1004.57
2018-03-18T06:11:04.692Z,1004.60
2018-03-18T06:12:04.704Z,1004.55
2018-03-18T06:13:04.714Z,1004.56
2018-03-18T06:14:04.726Z,1004.62
2018-03-18T06:15:04.736Z,1004.55
2018-03-18T06:16:04.753Z,1004.59
2018-03-18T06:17:04.759Z,1004.57
2018-03-18T06:18:04.770Z,1004.62
2018-03-18T06:19:04.782Z,1004.60
2018-03-18T06:20:04.794Z,1004.64
2018-03-18T06:21:04.804Z,1004.60
2018-03-18T06:22:04.816Z,1004.57
2018-03-18T06:23:04.828Z,1004.71
2018-03-18T06:24:04.839Z,1004.63
2018-03-18T06:25:04.849Z,1004.69
2018-03-18T06:26:04.862Z,1004.65
2018-03-18T06:27:04.873Z,1004.69
2018-03-18T06:28:04.883Z,1004.62
2018-03-18T06:29:04.894Z,1004.66
2018-03-18T06:30:04.907Z,1004.67
2018-03-18T06:31:04.918Z,1004.61
2018-03-18T06:32:04.930Z,1004.66
2018-03-18T06:33:04.940Z,1004.60
2018-03-18T06:34:04.952Z,1004.65
2018-03-18T06:35:04.965Z,1004.67
2018-03-18T06:36:04.975Z,1004.70
2018-03-18T06:37:04.986Z,1004.65
2018-03-18T06:38:04.997Z,1004.69
2018-03-18T06:39:05.010Z,1004.66
2018-03-18T06:40:05.022Z,1004.74
2018-03-18T06:41:05.031Z,1004.73
2018-03-18T06:42:05.045Z,1004.75
2018-03-18T06:43:05.060Z,1004.74
2018-03-18T06:44:05.121Z,1004.85
2018-03-18T06:45:05.077Z,1004.76
2018-03-18T06:46:05.088Z,1004.76
2018-03-18T06:47:05.099Z,1004.76
2018-03-18T06:48:05.112Z,1004.84
2018-03-18T06:49:05.122Z,1004.82
2018-03-18T06:50:05.139Z,1004.78
2018-03-18T06:51:05.146Z,1004.73
2018-03-18T06:52:05.158Z,1004.83
2018-03-18T06:53:05.167Z,1004.83
2018-03-18T06:54:05.183Z,1004.88
2018-03-18T06:55:05.191Z,1004.83
2018-03-18T06:56:05.204Z,1004.82
2018-03-18T06:57:05.213Z,1004.89
2018-03-18T06:58:05.227Z,1004.80
2018-03-18T06:59:05.238Z,1004.82
2018-03-18T07:00:05.249Z,1004.86
2018-03-18T07:01:05.262Z,1004.85
2018-03-18T07:02:05.272Z,1004.85
2018-03-18T07:03:05.283Z,1004.74
2018-03-18T07:04:05.295Z,1004.81
2018-03-18T07:05:05.308Z,1004.95
2018-03-18T07:06:05.320Z,1004.91
2018-03-18T07:07:05.330Z,1005.01
2018-03-18T07:08:05.344Z,1004.93
2018-03-18T07:09:05.354Z,1004.94
2018-03-18T07:10:05.364Z,1004.96
2018-03-18T07:11:05.375Z,1004.91
2018-03-18T07:12:05.387Z,1004.95
2018-03-18T07:13:05.402Z,1004.95
2018-03-18T07:14:05.411Z,1004.97
2018-03-18T07:15:05.422Z,1004.94
2018-03-18T07:16:05.434Z,1005.00
2018-03-18T07:17:05.445Z,1004.98
2018-03-18T07:18:05.456Z,1004.95
2018-03-18T07:19:05.468Z,1005.01
2018-03-18T07:20:05.481Z,1004.95
2018-03-18T07:21:05.497Z,1004.94
2018-03-18T07:22:05.502Z,1005.14
2018-03-18T07:23:05.515Z,1005.06
2018-03-18T07:24:05.526Z,1005.07
2018-03-18T07:25:05.545Z,1004.95
2018-03-18T07:26:05.550Z,1005.14
2018-03-18T07:27:05.560Z,1005.08
2018-03-18T07:28:05.572Z,1005.13
2018-03-18T07:29:05.582Z,1005.09
2018-03-18T07:30:05.595Z,1005.23
2018-03-18T07:31:05.606Z,1005.13
2018-03-18T07:32:05.618Z,1005.18
2018-03-18T07:33:05.639Z,1005.12
2018-03-18T07:34:05.641Z,1005.23
2018-03-18T07:35:05.653Z,1005.31
2018-03-18T07:36:05.664Z,1005.25
2018-03-18T07:37:05.679Z,1005.23
2018-03-18T07:38:05.689Z,1005.19
2018-03-18T07:39:05.733Z,1005.30
2018-03-18T07:40:05.722Z,1005.26
2018-03-18T07:41:05.723Z,1005.28
2018-03-18T07:42:05.783Z,1005.21
2018-03-18T07:43:05.745Z,1005.29
2018-03-18T07:44:05.761Z,1005.34
2018-03-18T07:45:05.768Z,1005.31
2018-03-18T07:46:05.781Z,1005.26
2018-03-18T07:47:05.792Z,1005.30
2018-03-18T07:48:05.807Z,1005.34
2018-03-18T07:49:05.916Z,1005.24
2018-03-18T07:50:05.833Z,1005.25
2018-03-18T07:51:05.847Z,1005.37
2018-03-18T07:52:05.856Z,1005.36
2018-03-18T07:53:05.866Z,1005.42
2018-03-18T07:54:05.873Z,1005.51
2018-03-18T07:55:05.888Z,1005.48
2018-03-18T07:56:05.897Z,1005.39
2018-03-18T07:57:05.910Z,1005.52
2018-03-18T07:58:05.920Z,1005.46
2018-03-18T07:59:05.932Z,1005.36
2018-03-18T08:00:05.944Z,1005.42
2018-03-18T08:01:05.955Z,1005.51
2018-03-18T08:02:05.967Z,1005.42
2018-03-18T08:03:05.980Z,1005.49
2018-03-18T08:04:05.991Z,1005.46
2018-03-18T08:05:06.001Z,1005.55
2018-03-18T08:06:06.013Z,1005.41
2018-03-18T08:07:06.026Z,1005.63
2018-03-18T08:08:06.041Z,1005.36
2018-03-18T08:09:06.059Z,1005.67
2018-03-18T08:10:06.061Z,1005.36
2018-03-18T08:11:06.073Z,1005.49
2018-03-18T08:12:06.085Z,1005.53
2018-03-18T08:13:06.103Z,1005.57
2018-03-18T08:14:06.111Z,1005.41
2018-03-18T08:15:06.121Z,1005.48
2018-03-18T08:16:06.131Z,1005.54
2018-03-18T08:17:06.145Z,1005.53
2018-03-18T08:18:06.155Z,1005.60
2018-03-18T08:19:06.167Z,1005.54
2018-03-18T08:20:06.179Z,1005.61
2018-03-18T08:21:06.190Z,1005.61
2018-03-18T08:22:06.316Z,1005.53
2018-03-18T08:23:06.215Z,1005.69
2018-03-18T08:24:06.231Z,1005.65
2018-03-18T08:25:06.240Z,1005.62
2018-03-18T08:26:06.256Z,1005.65
2018-03-18T08:27:06.263Z,1005.81
2018-03-18T08:28:06.275Z,1005.70
2018-03-18T08:29:06.287Z,1005.58
2018-03-18T08:30:06.299Z,1005.70
2018-03-18T08:31:06.312Z,1005.69
2018-03-18T08:32:06.323Z,1005.73
2018-03-18T08:33:06.334Z,1005.66
2018-03-18T08:34:06.347Z,1005.52
2018-03-18T08:35:06.360Z,1005.66
2018-03-18T08:36:06.372Z,1005.70
2018-03-18T08:37:06.383Z,1005.64
2018-03-18T08:38:06.396Z,1005.68
2018-03-18T08:39:06.408Z,1005.60
2018-03-18T08:40:06.422Z,1005.67
2018-03-18T08:41:06.431Z,1005.67
2018-03-18T08:42:06.444Z,1005.65
2018-03-18T08:43:06.456Z,1005.67
2018-03-18T08:44:06.470Z,1005.61
2018-03-18T08:45:06.480Z,1005.67
2018-03-18T08:46:06.492Z,1005.72
2018-03-18T08:47:06.506Z,1005.68
2018-03-18T08:48:06.517Z,1005.72
2018-03-18T08:49:06.530Z,1005.67
2018-03-18T08:50:06.544Z,1005.81
2018-03-18T08:51:06.554Z,1005.71
2018-03-18T08:52:06.567Z,1005.76
2018-03-18T08:53:06.576Z,1005.74
2018-03-18T08:54:06.590Z,1005.75
2018-03-18T08:55:06.603Z,1005.79
2018-03-18T08:56:06.615Z,1005.74
2018-03-18T08:57:06.629Z,1005.66
2018-03-18T08:58:06.644Z,1005.63
2018-03-18T08:59:06.651Z,1005.94
2018-03-18T09:00:06.663Z,1005.79
2018-03-18T09:01:06.676Z,1005.74
2018-03-18T09:02:06.688Z,1005.67
2018-03-18T09:03:06.702Z,1005.69
2018-03-18T09:04:06.715Z,1005.71
2018-03-18T09:05:06.726Z,1005.76
2018-03-18T09:06:06.739Z,1005.74
2018-03-18T09:07:06.752Z,1005.75
2018-03-18T09:08:06.762Z,1005.75
2018-03-18T09:09:06.774Z,1005.82
2018-03-18T09:10:06.786Z,1005.81
2018-03-18T09:11:06.805Z,1005.78
2018-03-18T09:12:06.813Z,1005.91
2018-03-18T09:13:06.822Z,1005.85
2018-03-18T09:14:06.842Z,1005.88
2018-03-18T09:15:06.849Z,1005.78
2018-03-18T09:16:06.866Z,1005.76
2018-03-18T09:17:06.872Z,1005.93
2018-03-18T09:18:06.891Z,1005.92
2018-03-18T09:19:06.898Z,1005.81
2018-03-18T09:20:06.910Z,1005.87
2018-03-18T09:21:06.925Z,1005.81
2018-03-18T09:22:06.935Z,1005.84
2018-03-18T09:23:06.958Z,1005.89
2018-03-18T09:24:06.965Z,1005.83
2018-03-18T09:25:06.981Z,1005.83
2018-03-18T09:26:06.984Z,1005.83
2018-03-18T09:27:07.004Z,1005.82
2018-03-18T09:28:07.010Z,1005.77
2018-03-18T09:29:07.026Z,1005.84
2018-03-18T09:30:07.036Z,1005.79
2018-03-18T09:31:07.053Z,1005.73
2018-03-18T09:32:07.061Z,1005.83
2018-03-18T09:33:07.074Z,1005.94
2018-03-18T09:34:07.091Z,1005.64
2018-03-18T09:35:07.096Z,1005.78
2018-03-18T09:36:07.115Z,1005.80
2018-03-18T09:37:07.122Z,1005.82
2018-03-18T09:38:07.134Z,1005.88
2018-03-18T09:39:07.148Z,1005.86
2018-03-18T09:40:07.159Z,1005.91
2018-03-18T09:41:07.173Z,1005.91
2018-03-18T09:42:07.185Z,1005.93
2018-03-18T09:43:07.210Z,1005.95
2018-03-18T09:44:07.212Z,1005.94
2018-03-18T09:45:07.224Z,1005.98
2018-03-18T09:46:07.237Z,1005.77
2018-03-18T09:47:07.250Z,1005.91
2018-03-18T09:48:07.281Z,1005.87
2018-03-18T09:49:07.277Z,1005.88
2018-03-18T09:50:07.287Z,1005.80
2018-03-18T09:51:07.301Z,1005.88
2018-03-18T09:52:07.314Z,1005.91
2018-03-18T09:53:07.326Z,1005.92
2018-03-18T09:54:07.357Z,1005.91
2018-03-18T09:55:07.352Z,1005.84
2018-03-18T09:56:07.367Z,1006.01
2018-03-18T09:57:07.378Z,1005.87
2018-03-18T09:58:07.392Z,1005.91
2018-03-18T09:59:07.404Z,1005.96
2018-03-18T10:00:07.418Z,1005.97
2018-03-18T10:01:07.433Z,1005.92
2018-03-18T10:02:07.443Z,1005.88
2018-03-18T10:03:07.457Z,1005.94
2018-03-18T10:04:07.473Z,1006.07
2018-03-18T10:05:07.482Z,1005.99
2018-03-18T10:06:07.496Z,1006.01
2018-03-18T10:07:07.509Z,1005.89
2018-03-18T10:08:07.522Z,1005.99
2018-03-18T10:09:07.534Z,1006.04
2018-03-18T10:10:07.547Z,1005.92
2018-03-18T10:11:07.566Z,1005.99
2018-03-18T10:12:07.574Z,1006.05
2018-03-18T10:13:07.586Z,1006.08
2018-03-18T10:14:07.600Z,1006.00
2018-03-18T10:15:07.617Z,1005.97
2018-03-18T10:16:07.626Z,1006.13
2018-03-18T10:17:07.638Z,1006.09
2018-03-18T10:18:07.652Z,1006.10
2018-03-18T10:19:07.665Z,1005.99
2018-03-18T10:20:07.679Z,1005.99
2018-03-18T10:21:07.691Z,1005.97
2018-03-18T10:22:07.704Z,1006.06
2018-03-18T10:23:07.717Z,1006.10
2018-03-18T10:24:07.731Z,1005.97
2018-03-18T10:25:07.743Z,1006.06
2018-03-18T10:26:07.756Z,1005.99
2018-03-18T10:27:07.770Z,1006.00
2018-03-18T10:28:07.783Z,1006.19
2018-03-18T10:29:07.796Z,1006.09
2018-03-18T10:30:07.813Z,1006.13
2018-03-18T10:31:07.843Z,1006.07
2018-03-18T10:32:07.837Z,1006.02
2018-03-18T10:33:07.852Z,1005.93
2018-03-18T10:34:07.861Z,1005.91
2018-03-18T10:35:07.875Z,1006.05
2018-03-18T10:36:07.889Z,1006.05
2018-03-18T10:37:07.901Z,1006.14
2018-03-18T10:38:07.914Z,1005.88
2018-03-18T10:39:07.929Z,1006.14
2018-03-18T10:40:07.942Z,1006.21
2018-03-18T10:41:07.954Z,1006.02
2018-03-18T10:42:07.968Z,1005.87
2018-03-18T10:43:07.982Z,1006.09
2018-03-18T10:44:07.995Z,1006.23
2018-03-18T10:45:08.006Z,1006.23
2018-03-18T10:46:08.022Z,1006.06
2018-03-18T10:47:08.036Z,1006.11
2018-03-18T10:48:08.047Z,1006.21
2018-03-18T10:49:08.060Z,1006.06
2018-03-18T10:50:08.073Z,1005.97
2018-03-18T10:51:08.086Z,1006.23
2018-03-18T10:52:08.099Z,1005.95
2018-03-18T10:53:08.112Z,1006.09
2018-03-18T10:54:08.125Z,1006.25
2018-03-18T10:55:08.138Z,1006.15
2018-03-18T10:56:08.152Z,1006.13
2018-03-18T10:57:08.165Z,1006.14
2018-03-18T10:58:08.180Z,1006.05
2018-03-18T10:59:08.191Z,1005.98
2018-03-18T11:00:08.206Z,1006.06
2018-03-18T11:01:08.221Z,1006.03
2018-03-18T11:02:08.231Z,1006.03
2018-03-18T11:03:08.246Z,1006.03
2018-03-18T11:04:08.258Z,1006.13
2018-03-18T11:05:08.270Z,1006.11
2018-03-18T11:06:08.284Z,1006.07
2018-03-18T11:07:08.297Z,1006.07
2018-03-18T11:08:08.311Z,1006.09
2018-03-18T11:09:08.323Z,1006.01
2018-03-18T11:10:08.337Z,1005.98
2018-03-18T11:11:08.350Z,1006.00
2018-03-18T11:12:08.363Z,1005.82
2018-03-18T11:13:08.380Z,1006.12
2018-03-18T11:14:08.391Z,1005.93
2018-03-18T11:15:08.467Z,1006.07
2018-03-18T11:16:08.454Z,1005.89
2018-03-18T11:17:08.430Z,1005.82
2018-03-18T11:18:08.497Z,1006.00
2018-03-18T11:19:08.457Z,1006.07
2018-03-18T11:20:08.470Z,1005.96
2018-03-18T11:21:08.482Z,1005.98
2018-03-18T11:22:08.496Z,1006.07
2018-03-18T11:23:08.509Z,1005.94
2018-03-18T11:24:08.522Z,1005.95
2018-03-18T11:25:08.536Z,1006.05
2018-03-18T11:26:08.549Z,1005.90
2018-03-18T11:27:08.562Z,1006.03
2018-03-18T11:28:08.578Z,1006.16
2018-03-18T11:29:08.589Z,1006.01
2018-03-18T11:30:08.605Z,1006.03
2018-03-18T11:31:08.615Z,1005.97
2018-03-18T11:32:08.629Z,1005.92
2018-03-18T11:33:08.642Z,1006.12
2018-03-18T11:34:08.655Z,1006.05
2018-03-18T11:35:08.669Z,1006.00
2018-03-18T11:36:08.680Z,1005.88
2018-03-18T11:37:08.696Z,1005.94
2018-03-18T11:38:08.709Z,1005.82
2018-03-18T11:39:08.721Z,1006.04
2018-03-18T11:40:08.734Z,1005.86
2018-03-18T11:41:08.752Z,1005.89
2018-03-18T11:42:08.760Z,1005.62
2018-03-18T11:43:08.773Z,1005.90
2018-03-18T11:44:08.787Z,1006.06
2018-03-18T11:45:08.800Z,1005.97
2018-03-18T11:46:08.812Z,1005.92
2018-03-18T11:47:08.825Z,1005.80
2018-03-18T11:48:08.839Z,1005.96
2018-03-18T11:49:08.852Z,1005.91
2018-03-18T11:50:08.868Z,1005.83
2018-03-18T11:51:08.878Z,1006.00
2018-03-18T11:52:08.892Z,1005.96
2018-03-18T11:53:08.904Z,1006.02
2018-03-18T11:54:08.918Z,1005.91
2018-03-18T11:55:08.932Z,1005.88
2018-03-18T11:56:08.945Z,1005.94
2018-03-18T11:57:08.956Z,1005.94
2018-03-18T11:58:08.976Z,1005.96
2018-03-18T11:59:08.984Z,1005.84
2018-03-18T12:00:08.997Z,1006.00
2018-03-18T12:01:09.041Z,1005.95
2018-03-18T12:02:09.022Z,1005.96
2018-03-18T12:03:09.037Z,1005.95
2018-03-18T12:04:09.049Z,1005.88
2018-03-18T12:05:09.063Z,1005.89